Time;durP1;ratioP1;P1;durP2;ratioP2;P2;SDS_P1;SDS_P2;PMS_P1;PMS_P2;Temp;Humidity;BMP_temperature;BMP_pressure;BME280_temperature;BME280_humidity;BME280_pressure;Samples;Min_cycle;Max_cycle;Signal;HPM_P1;HPM_P2
2021/09/15 00:02:20;;;;;;;;;;;;;;;26.55;nan;100431.44;5072068;28;20348;-48
2021/09/15 00:04:45;;;;;;;;;;;;;;;26.53;nan;100425.34;5052902;28;19967;-43
2021/09/15 00:07:10;;;;;;;;;;;;;;;26.55;nan;100415.09;5072142;28;20009;-43
2021/09/15 00:09:35;;;;;;;;;;;;;;;26.54;nan;100409.81;5071829;28;19916;-43
2021/09/15 00:12:01;;;;;;;;;;;;;;;26.54;nan;100437.09;5071915;28;19912;-42
2021/09/15 00:14:26;;;;;;;;;;;;;;;26.53;nan;100425.34;5071421;28;19955;-45
2021/09/15 00:16:51;;;;;;;;;;;;;;;26.53;nan;100398.06;5071812;28;20282;-43
2021/09/15 00:19:17;;;;;;;;;;;;;;;26.52;nan;100400.97;5070369;28;20286;-43
2021/09/15 00:21:42;;;;;;;;;;;;;;;26.54;nan;100398.94;5052052;28;19966;-49
2021/09/15 00:24:07;;;;;;;;;;;;;;;26.52;nan;100396.38;5051425;28;19920;-46
2021/09/15 00:26:33;;;;;;;;;;;;;;;;;;5069113;28;19921;-43
2021/09/15 00:28:58;;;;;;;;;;;;;;;26.54;nan;100409.81;5051755;28;19958;-49
2021/09/15 00:31:23;;;;;;;;;;;;;;;26.54;nan;100401.66;5051562;28;19973;-45
2021/09/15 00:33:49;;;;;;;;;;;;;;;26.53;nan;100387.16;5069837;28;19920;-47
2021/09/15 00:36:14;;;;;;;;;;;;;;;26.52;nan;100373.69;5071068;28;19939;-43
2021/09/15 00:38:39;;;;;;;;;;;;;;;26.52;nan;100373.69;5071257;28;19917;-45
2021/09/15 00:41:05;;;;;;;;;;;;;;;26.51;nan;100353.78;5071199;28;19920;-46
2021/09/15 00:43:30;;;;;;;;;;;;;;;26.51;nan;100356.50;5071131;28;19917;-45
2021/09/15 00:45:57;;;;;;;;;;;;;;;26.51;nan;100372.00;5071073;28;20002;-43
2021/09/15 00:48:22;;;;;;;;;;;;;;;26.52;nan;100357.34;5071717;28;19966;-42
2021/09/15 00:50:48;;;;;;;;;;;;;;;26.53;nan;100364.53;5071310;28;19916;-44
2021/09/15 00:53:13;;;;;;;;;;;;;;;26.52;nan;100363.69;5071513;28;19944;-43
2021/09/15 00:55:39;;;;;;;;;;;;;;;26.48;nan;100363.16;5086979;28;19913;-43
2021/09/15 00:58:04;;;;;;;;;;;;;;;26.51;nan;100356.50;5071059;28;19923;-45
2021/09/15 01:00:29;;;;;;;;;;;;;;;26.51;nan;100350.19;5071257;28;20002;-46
2021/09/15 01:02:54;;;;;;;;;;;;;;;26.51;nan;100352.94;5071340;28;19916;-45
2021/09/15 01:05:20;;;;;;;;;;;;;;;26.49;nan;100356.69;5070861;28;19924;-46
2021/09/15 01:07:45;;;;;;;;;;;;;;;26.49;nan;100356.69;5071033;28;19916;-46
2021/09/15 01:10:11;;;;;;;;;;;;;;;26.48;nan;100373.19;5071348;28;19952;-44
2021/09/15 01:12:37;;;;;;;;;;;;;;;26.50;nan;100371.16;5071255;28;20070;-44
2021/09/15 01:15:02;;;;;;;;;;;;;;;26.48;nan;100368.63;5052872;28;20412;-45
2021/09/15 01:17:28;;;;;;;;;;;;;;;26.48;nan;100382.25;5055160;28;20015;-43
2021/09/15 01:19:53;;;;;;;;;;;;;;;26.50;nan;100387.50;5075225;28;19912;-48
2021/09/15 01:22:18;;;;;;;;;;;;;;;26.49;nan;100385.81;5074953;28;19940;-42
2021/09/15 01:24:43;;;;;;;;;;;;;;;;;;5074923;28;19916;-46
2021/09/15 01:27:09;;;;;;;;;;;;;;;26.48;nan;100381.38;5057116;28;20050;-44
2021/09/15 01:29:35;;;;;;;;;;;;;;;26.48;nan;100384.09;5074738;28;19916;-43
2021/09/15 01:32:02;;;;;;;;;;;;;;;26.47;nan;100369.63;5074883;28;19995;-42
2021/09/15 01:34:28;;;;;;;;;;;;;;;26.47;nan;100364.16;5074955;28;20370;-47
2021/09/15 01:36:54;;;;;;;;;;;;;;;26.47;nan;100366.03;5074539;28;20015;-44
2021/09/15 01:39:19;;;;;;;;;;;;;;;26.46;nan;100358.91;5074446;28;19955;-42
2021/09/15 01:41:45;;;;;;;;;;;;;;;26.45;nan;100347.16;5074694;28;19974;-42
2021/09/15 01:44:10;;;;;;;;;;;;;;;26.45;nan;100352.59;5056300;28;19921;-43
2021/09/15 01:46:35;;;;;;;;;;;;;;;26.46;nan;100343.41;5090149;28;19920;-42
2021/09/15 01:49:01;;;;;;;;;;;;;;;26.46;nan;100353.44;5074216;28;20011;-43
2021/09/15 01:51:26;;;;;;;;;;;;;;;26.46;nan;100339.81;5074207;28;19912;-46
2021/09/15 01:53:51;;;;;;;;;;;;;;;26.45;nan;100332.66;5075332;28;20291;-43
2021/09/15 01:56:16;;;;;;;;;;;;;;;;;;5074349;28;19917;-44
2021/09/15 01:58:42;;;;;;;;;;;;;;;26.46;nan;100337.09;5074534;28;19951;-45
2021/09/15 02:01:07;;;;;;;;;;;;;;;26.45;nan;100325.34;5056593;28;20472;-43
2021/09/15 02:03:33;;;;;;;;;;;;;;;26.45;nan;100321.75;5056126;28;19973;-43
2021/09/15 02:05:58;;;;;;;;;;;;;;;26.45;nan;100319.03;5074327;28;19969;-46
2021/09/15 02:08:23;;;;;;;;;;;;;;;26.43;nan;100311.00;5074159;28;19913;-46
2021/09/15 02:10:49;;;;;;;;;;;;;;;26.44;nan;100307.28;5074323;28;19919;-46
2021/09/15 02:13:14;;;;;;;;;;;;;;;26.43;nan;100315.59;5074080;28;19932;-48
2021/09/15 02:15:39;;;;;;;;;;;;;;;26.44;nan;100317.31;5056150;28;19920;-43
2021/09/15 02:18:05;;;;;;;;;;;;;;;26.42;nan;100303.88;5055944;28;19920;-45
2021/09/15 02:20:30;;;;;;;;;;;;;;;26.43;nan;100310.16;5074134;28;19912;-45
2021/09/15 02:22:55;;;;;;;;;;;;;;;26.43;nan;100316.47;5073743;28;19966;-42
2021/09/15 02:25:21;;;;;;;;;;;;;;;26.42;nan;100313.91;5073594;28;20015;-45
2021/09/15 02:27:46;;;;;;;;;;;;;;;26.43;nan;100318.34;5073273;28;20015;-43
2021/09/15 02:30:11;;;;;;;;;;;;;;;;;;5073789;28;19960;-45
2021/09/15 02:32:36;;;;;;;;;;;;;;;26.43;nan;100315.59;5073418;28;19956;-49
2021/09/15 02:35:02;;;;;;;;;;;;;;;26.42;nan;100313.91;5073786;28;19913;-46
2021/09/15 02:37:27;;;;;;;;;;;;;;;26.41;nan;100314.94;5072460;28;20297;-45
2021/09/15 02:39:53;;;;;;;;;;;;;;;26.41;nan;100317.69;5073834;28;19973;-47
2021/09/15 02:42:18;;;;;;;;;;;;;;;26.41;nan;100318.53;5073029;28;20536;-46
2021/09/15 02:44:43;;;;;;;;;;;;;;;26.41;nan;100310.34;5072515;28;19912;-45
2021/09/15 02:47:08;;;;;;;;;;;;;;;26.42;nan;100308.47;5073500;28;19924;-48
2021/09/15 02:49:34;;;;;;;;;;;;;;;26.40;nan;100305.91;5089023;28;19912;-43
2021/09/15 02:51:59;;;;;;;;;;;;;;;26.40;nan;100310.50;5073396;28;19913;-45
2021/09/15 02:54:24;;;;;;;;;;;;;;;26.40;nan;100310.50;5073586;28;19913;-43
2021/09/15 02:56:50;;;;;;;;;;;;;;;26.40;nan;100302.31;5073301;28;19912;-43
2021/09/15 02:59:15;;;;;;;;;;;;;;;26.40;nan;100305.91;5055247;28;19920;-45
2021/09/15 03:01:40;;;;;;;;;;;;;;;26.40;nan;100310.50;5073289;28;20394;-44
2021/09/15 03:04:06;;;;;;;;;;;;;;;26.40;nan;100302.31;5073136;28;19916;-43
2021/09/15 03:06:31;;;;;;;;;;;;;;;26.39;nan;100298.75;5073170;28;19912;-47
2021/09/15 03:08:56;;;;;;;;;;;;;;;26.38;nan;100302.50;5073121;28;19912;-42
2021/09/15 03:11:22;;;;;;;;;;;;;;;26.40;nan;100302.31;5073147;28;20371;-43
2021/09/15 03:13:47;;;;;;;;;;;;;;;26.39;nan;100297.91;5073049;28;19916;-49
2021/09/15 03:16:13;;;;;;;;;;;;;;;26.38;nan;100299.78;5072970;28;19914;-44
2021/09/15 03:18:38;;;;;;;;;;;;;;;26.38;nan;100302.50;5072860;28;19912;-42
2021/09/15 03:21:04;;;;;;;;;;;;;;;;;;5072898;28;20013;-46
2021/09/15 03:23:29;;;;;;;;;;;;;;;26.37;nan;100305.44;5072712;28;19924;-45
2021/09/15 03:25:54;;;;;;;;;;;;;;;26.37;nan;100295.38;5083397;22;19932;-42
2021/09/15 03:28:19;;;;;;;;;;;;;;;;;;5072808;28;19916;-41
2021/09/15 03:30:45;;;;;;;;;;;;;;;26.37;nan;100317.16;5072984;28;19919;-43
2021/09/15 03:33:10;;;;;;;;;;;;;;;26.34;nan;100309.34;5072836;28;20293;-41
2021/09/15 03:35:35;;;;;;;;;;;;;;;26.36;nan;100320.91;5055024;28;20338;-43
2021/09/15 03:38:00;;;;;;;;;;;;;;;26.36;nan;100326.34;5057563;28;19967;-43
2021/09/15 03:40:26;;;;;;;;;;;;;;;26.36;nan;100314.59;5052073;28;19917;-42
2021/09/15 03:42:51;;;;;;;;;;;;;;;26.35;nan;100307.47;5053167;28;19923;-43
2021/09/15 03:45:17;;;;;;;;;;;;;;;26.36;nan;100306.44;5053817;28;19920;-43
2021/09/15 03:47:42;;;;;;;;;;;;;;;26.34;nan;100309.34;5066754;28;20374;-40
2021/09/15 03:50:08;;;;;;;;;;;;;;;26.34;nan;100300.31;5057084;28;20343;-40
2021/09/15 03:52:33;;;;;;;;;;;;;;;26.34;nan;100308.50;5052834;28;19913;-43
2021/09/15 03:54:58;;;;;;;;;;;;;;;26.33;nan;100312.22;5053811;28;20012;-41
2021/09/15 03:57:24;;;;;;;;;;;;;;;26.33;nan;100324.00;5052553;28;20379;-44
2021/09/15 03:59:49;;;;;;;;;;;;;;;26.34;nan;100327.56;5052464;28;20497;-42
2021/09/15 04:02:14;;;;;;;;;;;;;;;26.33;nan;100325.84;5053504;28;19921;-41
2021/09/15 04:04:39;;;;;;;;;;;;;;;26.33;nan;100318.53;5052472;28;20398;-43
2021/09/15 04:07:05;;;;;;;;;;;;;;;;;;5055669;28;19916;-43
2021/09/15 04:09:30;;;;;;;;;;;;;;;26.32;nan;100303.19;5072249;28;19919;-44
2021/09/15 04:11:55;;;;;;;;;;;;;;;26.32;nan;100313.25;5068641;28;19917;-44
2021/09/15 04:14:22;;;;;;;;;;;;;;;26.32;nan;100308.66;5072112;28;19999;-44
2021/09/15 04:16:48;;;;;;;;;;;;;;;26.32;nan;100299.63;5070496;28;19962;-43
2021/09/15 04:19:13;;;;;;;;;;;;;;;26.31;nan;100309.69;5072028;28;19916;-44
2021/09/15 04:21:40;;;;;;;;;;;;;;;26.31;nan;100298.78;5062387;28;19916;-44
2021/09/15 04:32:16;;;;;;;;;;;;;;;26.28;nan;100301.00;5052011;28;19959;-46
2021/09/15 04:34:41;;;;;;;;;;;;;;;26.30;nan;100288.06;5057718;28;19920;-44
2021/09/15 04:37:07;;;;;;;;;;;;;;;26.30;nan;100293.50;5071831;28;20235;-42
2021/09/15 04:39:32;;;;;;;;;;;;;;;26.29;nan;100302.69;5069993;28;20382;-44
2021/09/15 04:41:57;;;;;;;;;;;;;;;26.28;nan;100301.84;5058850;28;19916;-43
2021/09/15 04:44:23;;;;;;;;;;;;;;;26.30;nan;100309.88;5051716;28;19924;-43
2021/09/15 04:46:48;;;;;;;;;;;;;;;26.29;nan;100308.13;5063299;28;19920;-43
2021/09/15 04:49:13;;;;;;;;;;;;;;;26.28;nan;100312.75;5069947;28;20452;-44
2021/09/15 04:51:39;;;;;;;;;;;;;;;26.27;nan;100304.75;5067942;28;20019;-44
2021/09/15 04:54:04;;;;;;;;;;;;;;;26.28;nan;100306.44;5051727;28;20340;-44
2021/09/15 04:56:29;;;;;;;;;;;;;;;26.28;nan;100301.00;5050360;28;19912;-42
2021/09/15 04:58:54;;;;;;;;;;;;;;;26.26;nan;100298.47;5069128;28;19924;-44
2021/09/15 05:01:20;;;;;;;;;;;;;;;26.27;nan;100293.84;5071444;28;19912;-46
2021/09/15 05:03:45;;;;;;;;;;;;;;;26.27;nan;100291.13;5071547;28;19916;-41
2021/09/15 05:06:10;;;;;;;;;;;;;;;26.27;nan;100296.59;5071438;28;20460;-44
2021/09/15 05:08:36;;;;;;;;;;;;;;;26.25;nan;100300.34;5071637;28;20004;-44
2021/09/15 05:11:01;;;;;;;;;;;;;;;26.23;nan;100304.25;5068151;28;19920;-44
2021/09/15 05:13:27;;;;;;;;;;;;;;;26.26;nan;100301.19;5071478;28;19947;-44
2021/09/15 05:15:52;;;;;;;;;;;;;;;26.25;nan;100299.47;5071563;28;19952;-43
2021/09/15 05:18:17;;;;;;;;;;;;;;;26.24;nan;100297.75;5061016;28;19999;-44
2021/09/15 05:20:42;;;;;;;;;;;;;;;26.22;nan;100292.50;5052482;28;19923;-44
2021/09/15 05:23:08;;;;;;;;;;;;;;;26.22;nan;100292.50;5056111;28;20320;-43
2021/09/15 05:25:34;;;;;;;;;;;;;;;;;;5064672;28;20308;-43
2021/09/15 05:27:59;;;;;;;;;;;;;;;26.23;nan;100296.06;5067911;28;19962;-45
2021/09/15 05:30:24;;;;;;;;;;;;;;;26.22;nan;100278.03;5068898;28;19920;-44
2021/09/15 05:32:50;;;;;;;;;;;;;;;26.21;nan;100295.38;5062913;28;19917;-43
2021/09/15 05:35:15;;;;;;;;;;;;;;;26.21;nan;100298.97;5058965;28;19916;-43
2021/09/15 05:37:41;;;;;;;;;;;;;;;26.21;nan;100300.81;5050925;28;19935;-43
2021/09/15 05:40:06;;;;;;;;;;;;;;;26.22;nan;100295.22;5054935;28;19995;-45
2021/09/15 05:42:32;;;;;;;;;;;;;;;;;;5069470;28;19916;-42
2021/09/15 05:45:01;;;;;;;;;;;;;;;26.21;nan;100295.38;5071030;28;19935;-45
2021/09/15 05:47:27;;;;;;;;;;;;;;;26.20;nan;100313.59;5071931;28;19966;-44
2021/09/15 05:49:52;;;;;;;;;;;;;;;26.20;nan;100305.44;5071425;28;20001;-41
2021/09/15 05:52:18;;;;;;;;;;;;;;;26.20;nan;100302.72;5066683;28;19913;-41
2021/09/15 05:54:43;;;;;;;;;;;;;;;26.20;nan;100301.88;5051202;28;19920;-41
2021/09/15 05:57:08;;;;;;;;;;;;;;;26.20;nan;100304.59;5050870;28;19916;-43
2021/09/15 05:59:33;;;;;;;;;;;;;;;26.19;nan;100303.75;5060217;28;19981;-41
2021/09/15 06:01:59;;;;;;;;;;;;;;;26.18;nan;100291.16;5070937;28;19916;-41
2021/09/15 06:04:24;;;;;;;;;;;;;;;26.18;nan;100288.44;5070594;28;19917;-41
2021/09/15 06:06:49;;;;;;;;;;;;;;;26.17;nan;100289.44;5072762;28;20371;-41
2021/09/15 06:09:15;;;;;;;;;;;;;;;26.19;nan;100294.72;5074597;28;19959;-41
2021/09/15 06:11:40;;;;;;;;;;;;;;;26.18;nan;100285.69;5074494;28;20341;-41
2021/09/15 06:14:05;;;;;;;;;;;;;;;26.17;nan;100280.41;5072850;28;20344;-41
2021/09/15 06:16:31;;;;;;;;;;;;;;;26.17;nan;100291.31;5065675;28;19924;-41
2021/09/15 06:18:56;;;;;;;;;;;;;;;26.17;nan;100289.44;5054398;28;19951;-41
2021/09/15 06:21:21;;;;;;;;;;;;;;;26.16;nan;100297.78;5054403;28;19921;-42
2021/09/15 06:23:47;;;;;;;;;;;;;;;26.11;nan;100309.19;5069663;28;19920;-41
2021/09/15 06:26:13;;;;;;;;;;;;;;;26.05;nan;100309.03;5072204;28;20386;-43
2021/09/15 06:28:39;;;;;;;;;;;;;;;26.03;nan;100320.09;5074282;28;19916;-43
2021/09/15 06:31:05;;;;;;;;;;;;;;;26.01;nan;100317.53;5074185;28;20383;-41
2021/09/15 06:33:30;;;;;;;;;;;;;;;25.99;nan;100313.31;5074085;28;19963;-43
2021/09/15 06:35:56;;;;;;;;;;;;;;;25.97;nan;100309.88;5073664;28;20375;-45
2021/09/15 06:38:21;;;;;;;;;;;;;;;25.95;nan;100310.06;5067874;28;19927;-41
2021/09/15 06:40:46;;;;;;;;;;;;;;;25.94;nan;100312.94;5073906;28;20279;-44
2021/09/15 06:43:12;;;;;;;;;;;;;;;25.93;nan;100317.53;5071367;28;19917;-44
2021/09/15 06:45:44;;;;;;;;;;;;;;;25.91;nan;100322.31;5052543;28;20286;-45
2021/09/15 06:48:09;;;;;;;;;;;;;;;25.90;nan;100319.75;5054683;28;19921;-42
2021/09/15 06:50:34;;;;;;;;;;;;;;;25.89;nan;100318.06;5053830;28;19919;-43
2021/09/15 06:53:06;;;;;;;;;;;;;;;25.89;nan;100323.50;5053572;28;19943;-44
2021/09/15 06:55:32;;;;;;;;;;;;;;;25.88;nan;100321.81;5053587;28;19923;-44
2021/09/15 06:57:57;;;;;;;;;;;;;;;25.88;nan;100327.25;5067702;28;19912;-43
2021/09/15 07:00:22;;;;;;;;;;;;;;;25.86;nan;100329.28;5065434;28;19917;-40
2021/09/15 07:02:48;;;;;;;;;;;;;;;25.87;nan;100333.72;5073346;28;19924;-41
2021/09/15 07:05:14;;;;;;;;;;;;;;;25.85;nan;100344.78;5067971;28;19913;-41
2021/09/15 07:07:39;;;;;;;;;;;;;;;25.83;nan;100338.63;5058855;28;19920;-43
2021/09/15 07:10:06;;;;;;;;;;;;;;;25.85;nan;100341.22;5054335;28;19912;-41
2021/09/15 07:12:31;;;;;;;;;;;;;;;25.84;nan;100359.41;5073137;28;20020;-42
2021/09/15 07:14:56;;;;;;;;;;;;;;;25.84;nan;100359.41;5073320;28;19962;-42
2021/09/15 07:17:21;;;;;;;;;;;;;;;25.83;nan;100371.31;5073019;28;20054;-41
2021/09/15 07:19:47;;;;;;;;;;;;;;;25.84;nan;100369.47;5073308;28;19912;-43
2021/09/15 07:22:12;;;;;;;;;;;;;;;25.83;nan;100378.63;5072419;28;20286;-44
2021/09/15 07:24:37;;;;;;;;;;;;;;;25.82;nan;100368.78;5056067;28;19912;-43
2021/09/15 07:27:03;;;;;;;;;;;;;;;25.80;nan;100352.63;5057278;28;19990;-44
2021/09/15 07:29:28;;;;;;;;;;;;;;;25.85;nan;100357.53;5070590;28;20393;-44
2021/09/15 07:31:53;;;;;;;;;;;;;;;25.86;nan;100351.91;5066985;28;19920;-46
2021/09/15 07:34:19;;;;;;;;;;;;;;;25.88;nan;100349.91;5068201;28;19920;-44
2021/09/15 07:36:44;;;;;;;;;;;;;;;25.89;nan;100357.03;5064882;28;19969;-43
2021/09/15 07:39:09;;;;;;;;;;;;;;;25.93;nan;100352.09;5053206;28;19970;-47
2021/09/15 07:41:35;;;;;;;;;;;;;;;25.94;nan;100356.50;5062493;28;19917;-45
2021/09/15 07:44:00;;;;;;;;;;;;;;;25.95;nan;100369.13;5063501;28;19962;-41
2021/09/15 07:46:26;;;;;;;;;;;;;;;25.96;nan;100373.56;5063683;28;19913;-43
2021/09/15 07:48:52;;;;;;;;;;;;;;;25.97;nan;100372.53;5035863;28;19920;-43
2021/09/15 07:51:18;;;;;;;;;;;;;;;25.98;nan;100383.22;5059826;28;19917;-44
2021/09/15 07:53:43;;;;;;;;;;;;;;;25.97;nan;100391.59;5059130;28;19931;-46
2021/09/15 07:56:09;;;;;;;;;;;;;;;25.96;nan;100404.34;5067413;28;20014;-42
2021/09/15 07:58:34;;;;;;;;;;;;;;;25.97;nan;100424.25;5041051;28;20019;-44
2021/09/15 08:00:59;;;;;;;;;;;;;;;25.96;nan;100441.63;5065243;28;19959;-42
2021/09/15 08:03:25;;;;;;;;;;;;;;;25.96;nan;100460.69;5069765;28;19952;-43
2021/09/15 08:05:50;;;;;;;;;;;;;;;25.96;nan;100464.28;5052441;28;19957;-44
2021/09/15 08:08:15;;;;;;;;;;;;;;;25.97;nan;100456.94;5050231;28;19972;-44
2021/09/15 08:10:41;;;;;;;;;;;;;;;25.94;nan;100449.94;5057450;28;19917;-44
2021/09/15 08:13:06;;;;;;;;;;;;;;;;;;5070778;28;20294;-45
2021/09/15 08:15:31;;;;;;;;;;;;;;;25.93;nan;100441.97;5059910;28;21161;-42
2021/09/15 08:17:57;;;;;;;;;;;;;;;25.93;nan;100458.31;5066307;28;19919;-42
2021/09/15 08:20:22;;;;;;;;;;;;;;;25.94;nan;100462.72;5069899;28;19922;-44
2021/09/15 08:22:47;;;;;;;;;;;;;;;25.95;nan;100456.28;5069478;28;19921;-43
2021/09/15 08:25:13;;;;;;;;;;;;;;;25.96;nan;100452.53;5066362;28;19917;-41
2021/09/15 08:27:38;;;;;;;;;;;;;;;25.96;nan;100460.69;5066215;28;20011;-44
2021/09/15 08:30:04;;;;;;;;;;;;;;;25.95;nan;100459.00;5070883;28;19919;-44
2021/09/15 08:32:29;;;;;;;;;;;;;;;25.96;nan;100463.41;5068657;28;20250;-44
2021/09/15 08:34:55;;;;;;;;;;;;;;;25.98;nan;100472.25;5057698;28;19913;-43
2021/09/15 08:37:20;;;;;;;;;;;;;;;25.98;nan;100469.53;5069877;28;19924;-43
2021/09/15 08:39:46;;;;;;;;;;;;;;;25.99;nan;100477.56;5054673;28;19913;-44
2021/09/15 08:42:11;;;;;;;;;;;;;;;26.02;nan;100476.34;5058980;28;19913;-42
2021/09/15 08:44:37;;;;;;;;;;;;;;;26.02;nan;100476.34;5059205;28;20399;-44
2021/09/15 08:47:03;;;;;;;;;;;;;;;26.02;nan;100476.34;5059998;28;19909;-47
2021/09/15 08:49:29;;;;;;;;;;;;;;;26.03;nan;100478.06;5067494;28;19935;-44
2021/09/15 08:51:55;;;;;;;;;;;;;;;26.03;nan;100475.34;5068443;28;20019;-46
2021/09/15 08:54:20;;;;;;;;;;;;;;;26.04;nan;100479.78;5051802;28;20015;-44
2021/09/15 08:56:46;;;;;;;;;;;;;;;26.04;nan;100479.78;5051817;28;19917;-44
2021/09/15 08:59:11;;;;;;;;;;;;;;;26.06;nan;100491.34;5068416;28;19918;-48
2021/09/15 09:01:38;;;;;;;;;;;;;;;26.07;nan;100490.34;5071180;28;19936;-44
2021/09/15 09:04:03;;;;;;;;;;;;;;;26.06;nan;100477.72;5064975;28;19943;-47
2021/09/15 09:06:33;;;;;;;;;;;;;;;26.07;nan;100478.59;5054257;28;20310;-47
2021/09/15 09:09:00;;;;;;;;;;;;;;;26.09;nan;100487.44;5071402;28;20014;-44
2021/09/15 09:11:27;;;;;;;;;;;;;;;26.07;nan;100487.63;5068005;28;20002;-42
2021/09/15 09:13:55;;;;;;;;;;;;;;;26.09;nan;100482.84;5063127;28;19924;-47
2021/09/15 09:16:40;;;;;;;;;;;;;;;26.10;nan;100478.22;5056146;28;20733;-45
2021/09/15 09:19:07;;;;;;;;;;;;;;;26.11;nan;100475.34;5071073;28;20356;-44
2021/09/15 09:21:34;;;;;;;;;;;;;;;26.12;nan;100471.59;5070918;28;19916;-43
2021/09/15 09:24:01;;;;;;;;;;;;;;;26.12;nan;100465.31;5068126;28;20386;-43
2021/09/15 09:26:46;;;;;;;;;;;;;;;26.13;nan;100462.41;5067046;28;20421;-46
2021/09/15 09:29:12;;;;;;;;;;;;;;;26.14;nan;100475.03;5056130;28;19912;-46
2021/09/15 09:31:38;;;;;;;;;;;;;;;26.13;nan;100475.19;5064898;28;19935;-46
2021/09/15 09:34:03;;;;;;;;;;;;;;;26.14;nan;100479.63;5064415;28;19917;-44
2021/09/15 09:36:29;;;;;;;;;;;;;;;26.15;nan;100490.34;5051181;28;19913;-45
2021/09/15 09:38:54;;;;;;;;;;;;;;;26.17;nan;100479.28;5049714;28;19935;-46
2021/09/15 09:41:21;;;;;;;;;;;;;;;26.16;nan;100481.16;5065675;28;19917;-45
2021/09/15 09:43:48;;;;;;;;;;;;;;;26.19;nan;100460.91;5051663;28;20574;-48
2021/09/15 09:46:18;;;;;;;;;;;;;;;26.19;nan;100460.91;5053734;28;19944;-46
2021/09/15 09:48:47;;;;;;;;;;;;;;;26.19;nan;100453.56;5053914;28;20042;-45
2021/09/15 09:51:31;;;;;;;;;;;;;;;26.19;nan;100434.50;5064399;28;19912;-44
2021/09/15 09:54:15;;;;;;;;;;;;;;;26.20;nan;100430.75;5056844;28;19963;-47
2021/09/15 09:56:40;;;;;;;;;;;;;;;;;;5065920;28;19920;-47
2021/09/15 09:59:06;;;;;;;;;;;;;;;26.24;nan;100451.19;5061663;28;19919;-48
2021/09/15 10:01:35;;;;;;;;;;;;;;;26.25;nan;100465.66;5054460;28;19923;-46
2021/09/15 10:04:00;;;;;;;;;;;;;;;26.27;nan;100470.94;5060009;28;19971;-44
2021/09/15 10:06:26;;;;;;;;;;;;;;;26.28;nan;100469.91;5055611;28;19920;-44
2021/09/15 10:08:51;;;;;;;;;;;;;;;;;;5063395;28;19917;-46
2021/09/15 10:11:17;;;;;;;;;;;;;;;26.28;nan;100459.88;5059654;28;19916;-47
2021/09/15 10:13:42;;;;;;;;;;;;;;;26.31;nan;100455.97;5056661;28;19919;-45
2021/09/15 10:16:09;;;;;;;;;;;;;;;26.31;nan;100436.88;5070640;28;19912;-47
2021/09/15 10:18:34;;;;;;;;;;;;;;;26.31;nan;100428.72;5058682;28;19974;-44
2021/09/15 10:21:00;;;;;;;;;;;;;;;26.31;nan;100426.00;5060065;28;19920;-47
2021/09/15 10:23:35;;;;;;;;;;;;;;;26.33;nan;100422.09;5056514;28;19917;-48
2021/09/15 10:26:24;;;;;;;;;;;;;;;26.35;nan;100416.44;5073055;28;20387;-48
2021/09/15 10:29:23;;;;;;;;;;;;;;;26.35;nan;100398.22;5042710;28;21431;-47
2021/09/15 10:31:49;;;;;;;;;;;;;;;26.37;nan;100392.63;5061886;28;19916;-46
2021/09/15 10:34:34;;;;;;;;;;;;;;;26.37;nan;100398.91;5065255;28;19916;-43
2021/09/15 10:36:59;;;;;;;;;;;;;;;26.39;nan;100393.28;5052143;28;19913;-46
2021/09/15 10:39:26;;;;;;;;;;;;;;;26.38;nan;100384.25;5059944;28;19920;-45
2021/09/15 10:41:52;;;;;;;;;;;;;;;26.40;nan;100386.81;5053895;28;20012;-47
2021/09/15 10:44:17;;;;;;;;;;;;;;;26.40;nan;100397.69;5055461;28;20015;-45
2021/09/15 10:46:44;;;;;;;;;;;;;;;26.40;nan;100392.25;5066146;28;19963;-45
2021/09/15 10:49:21;;;;;;;;;;;;;;;26.41;nan;100405.72;5054572;28;19916;-45
2021/09/15 10:52:07;;;;;;;;;;;;;;;26.43;nan;100409.13;5052404;28;20022;-44
2021/09/15 10:54:39;;;;;;;;;;;;;;;26.43;nan;100400.09;5059667;28;19943;-46
2021/09/15 10:57:12;;;;;;;;;;;;;;;26.42;nan;100391.06;5057822;28;19955;-46
2021/09/15 10:59:57;;;;;;;;;;;;;;;26.46;nan;100397.06;5070272;28;20417;-48
2021/09/15 11:02:23;;;;;;;;;;;;;;;26.47;nan;100398.75;5071455;28;19923;-44
2021/09/15 11:04:48;;;;;;;;;;;;;;;26.47;nan;100402.31;5071385;28;19913;-46
2021/09/15 11:07:33;;;;;;;;;;;;;;;26.47;nan;100409.66;5071822;28;19912;-45
2021/09/15 11:09:59;;;;;;;;;;;;;;;26.48;nan;100411.34;5071314;28;19912;-44
2021/09/15 11:12:44;;;;;;;;;;;;;;;26.48;nan;100411.34;5071389;28;20015;-45
2021/09/15 11:15:25;;;;;;;;;;;;;;;26.49;nan;100405.75;5071346;28;20422;-46
2021/09/15 11:17:51;;;;;;;;;;;;;;;26.49;nan;100408.47;5071299;28;20466;-46
2021/09/15 11:20:19;;;;;;;;;;;;;;;26.50;nan;100403.88;5072752;28;19912;-46
2021/09/15 11:22:46;;;;;;;;;;;;;;;26.51;nan;100405.56;5071405;28;20435;-45
2021/09/15 11:25:21;;;;;;;;;;;;;;;26.50;nan;100403.88;5071428;28;19912;-45
2021/09/15 11:28:05;;;;;;;;;;;;;;;26.51;nan;100397.38;5073097;28;19931;-48
2021/09/15 11:30:30;;;;;;;;;;;;;;;26.53;nan;100400.81;5073005;28;19916;-48
2021/09/15 11:32:57;;;;;;;;;;;;;;;26.52;nan;100401.84;5073033;28;19920;-47
2021/09/15 11:35:22;;;;;;;;;;;;;;;26.54;nan;100399.78;5072493;28;19980;-49
2021/09/15 11:37:47;;;;;;;;;;;;;;;26.54;nan;100394.31;5072855;28;19959;-47
2021/09/15 11:40:13;;;;;;;;;;;;;;;26.54;nan;100405.22;5067681;28;19917;-48
2021/09/15 11:42:38;;;;;;;;;;;;;;;26.55;nan;100401.47;5053826;28;20366;-47
2021/09/15 11:45:14;;;;;;;;;;;;;;;26.56;nan;100377.78;5042195;28;19927;-47
2021/09/15 11:47:47;;;;;;;;;;;;;;;26.56;nan;100377.78;5052467;28;20378;-44
2021/09/15 11:50:21;;;;;;;;;;;;;;;26.56;nan;100370.47;5048909;28;20019;-46
2021/09/15 11:52:57;;;;;;;;;;;;;;;26.57;nan;100372.16;5041835;28;19925;-47
2021/09/15 11:55:23;;;;;;;;;;;;;;;26.57;nan;100368.59;5043134;28;19939;-45
2021/09/15 11:57:50;;;;;;;;;;;;;;;26.58;nan;100367.56;5064763;28;20293;-46
2021/09/15 12:00:16;;;;;;;;;;;;;;;26.58;nan;100352.06;5069224;28;19912;-44
2021/09/15 12:02:42;;;;;;;;;;;;;;;26.59;nan;100361.09;5056016;28;19916;-45
2021/09/15 12:05:07;;;;;;;;;;;;;;;;;;5050047;28;19916;-44
2021/09/15 12:07:33;;;;;;;;;;;;;;;26.60;nan;100352.75;5051986;28;19959;-47
2021/09/15 12:09:58;;;;;;;;;;;;;;;26.61;nan;100346.25;5053682;28;20295;-44
2021/09/15 12:12:26;;;;;;;;;;;;;;;26.61;nan;100340.81;5050952;28;20280;-47
2021/09/15 12:14:53;;;;;;;;;;;;;;;;;;5057963;28;19913;-45
2021/09/15 12:17:19;;;;;;;;;;;;;;;26.63;nan;100341.47;5051949;28;19923;-43
2021/09/15 12:19:48;;;;;;;;;;;;;;;26.63;nan;100332.44;5054349;28;20280;-46
2021/09/15 12:22:25;;;;;;;;;;;;;;;26.63;nan;100327.84;5052955;28;19928;-48
2021/09/15 12:25:07;;;;;;;;;;;;;;;26.64;nan;100326.84;5059254;28;19921;-44
2021/09/15 12:27:32;;;;;;;;;;;;;;;26.66;nan;100326.66;5052763;28;19956;-44
2021/09/15 12:30:04;;;;;;;;;;;;;;;26.65;nan;100320.34;5053224;28;20405;-45
2021/09/15 12:32:33;;;;;;;;;;;;;;;26.66;nan;100322.03;5053424;28;19913;-47
2021/09/15 12:34:59;;;;;;;;;;;;;;;26.66;nan;100313.88;5052675;28;19913;-48
2021/09/15 12:37:24;;;;;;;;;;;;;;;26.67;nan;100310.13;5062884;28;19923;-47
2021/09/15 12:39:50;;;;;;;;;;;;;;;26.68;nan;100316.44;5068541;28;20021;-44
2021/09/15 12:42:17;;;;;;;;;;;;;;;26.69;nan;100326.31;5050392;28;19927;-47
2021/09/15 12:44:43;;;;;;;;;;;;;;;26.70;nan;100314.38;5051675;28;19927;-45
2021/09/15 12:47:08;;;;;;;;;;;;;;;26.69;nan;100316.25;5064513;28;20011;-44
2021/09/15 12:49:33;;;;;;;;;;;;;;;26.71;nan;100314.22;5070421;28;20390;-44
2021/09/15 12:52:06;;;;;;;;;;;;;;;26.70;nan;100307.03;5069913;28;19965;-45
2021/09/15 12:54:32;;;;;;;;;;;;;;;26.71;nan;100325.13;5069756;28;19912;-44
2021/09/15 12:57:15;;;;;;;;;;;;;;;26.71;nan;100316.94;5069863;28;19959;-44
2021/09/15 12:59:40;;;;;;;;;;;;;;;26.74;nan;100313.84;5071542;28;20004;-44
2021/09/15 13:02:19;;;;;;;;;;;;;;;26.73;nan;100316.75;5064145;28;19948;-44
2021/09/15 13:04:44;;;;;;;;;;;;;;;26.74;nan;100313.84;5050207;28;19921;-44
2021/09/15 13:07:10;;;;;;;;;;;;;;;26.73;nan;100303.97;5052437;28;19920;-47
2021/09/15 13:09:35;;;;;;;;;;;;;;;26.77;nan;100306.34;5051467;28;19913;-44
2021/09/15 13:12:00;;;;;;;;;;;;;;;26.74;nan;100302.94;5054156;28;19916;-44